Time;durP1;ratioP1;P1;durP2;ratioP2;P2;SDS_P1;SDS_P2;PMS_P1;PMS_P2;Temp;Humidity;BMP_temperature;BMP_pressure;BME280_temperature;BME280_humidity;BME280_pressure;Samples;Min_cycle;Max_cycle;Signal;HPM_P1;HPM_P2
2021/05/07 00:01:37;;;;;;;43.30;20.77;;;;;;;2.65;100.00;100884.41;5210533;28;20021;-72
2021/05/07 00:04:09;;;;;;;40.70;19.88;;;;;;;2.57;100.00;100882.34;5201825;28;20028;-72
2021/05/07 00:06:39;;;;;;;45.55;20.30;;;;;;;2.60;100.00;100875.00;5201644;28;20029;-73
2021/05/07 00:09:10;;;;;;;44.38;20.95;;;;;;;2.74;100.00;100875.78;5219100;28;20021;-73
2021/05/07 00:11:40;;;;;;;44.65;21.92;;;;;;;2.80;100.00;100884.09;5209027;28;20029;-72
2021/05/07 00:14:11;;;;;;;53.38;25.10;;;;;;;3.19;100.00;100884.69;5222134;28;20033;-73
2021/05/07 00:16:41;;;;;;;51.00;22.48;;;;;;;3.28;100.00;100876.03;5220810;28;20182;-73
2021/05/07 00:19:12;;;;;;;44.17;20.88;;;;;;;3.17;100.00;100870.72;5220494;28;20025;-72
2021/05/07 00:21:42;;;;;;;43.67;22.52;;;;;;;3.07;100.00;100885.66;5208480;28;20067;-72
2021/05/07 00:24:13;;;;;;;37.28;19.83;;;;;;;2.96;100.00;100886.47;5210477;28;20032;-72
2021/05/07 00:26:43;;;;;;;41.85;19.90;;;;;;;2.82;100.00;100884.84;5222310;28;20036;-72
2021/05/07 00:29:14;;;;;;;43.67;19.80;;;;;;;2.70;100.00;100882.25;5222116;28;20025;-73
2021/05/07 00:31:44;;;;;;;38.97;19.98;;;;;;;2.64;100.00;100883.56;5220892;28;20057;-72
2021/05/07 00:34:15;;;;;;;38.47;19.08;;;;;;;2.61;100.00;100891.75;5210469;28;20142;-73
2021/05/07 00:36:45;;;;;;;50.00;22.45;;;;;;;2.52;100.00;100887.97;5220145;28;20539;-72
2021/05/07 00:39:16;;;;;;;47.75;22.60;;;;;;;2.57;100.00;100892.94;5221728;28;20268;-72
2021/05/07 00:41:46;;;;;;;46.95;22.27;;;;;;;2.51;100.00;100891.59;5216724;28;20104;-72
2021/05/07 00:44:17;;;;;;;51.13;23.77;;;;;;;2.47;100.00;100887.47;5202472;28;20029;-72
2021/05/07 00:46:48;;;;;;;50.45;22.77;;;;;;;2.41;100.00;100887.06;5213392;28;20030;-72
2021/05/07 00:49:18;;;;;;;48.25;21.48;;;;;;;2.34;100.00;100892.81;5215945;28;20394;-72
2021/05/07 00:51:49;;;;;;;54.38;24.48;;;;;;;2.41;100.00;100895.00;5211233;28;20112;-72
2021/05/07 00:54:20;;;;;;;54.15;21.95;;;;;;;2.51;100.00;100898.66;5234072;28;20533;-72
2021/05/07 00:56:50;;;;;;;51.00;22.70;;;;;;;2.61;100.00;100902.34;5221919;28;20025;-72
2021/05/07 00:59:21;;;;;;;76.43;29.98;;;;;;;3.01;100.00;100892.25;5221371;28;20017;-72
2021/05/07 01:01:52;;;;;;;84.18;33.08;;;;;;;3.43;100.00;100891.72;5210070;28;20108;-72
2021/05/07 01:04:22;;;;;;;54.60;25.88;;;;;;;3.28;100.00;100897.25;5201992;28;20037;-72
2021/05/07 01:06:53;;;;;;;54.92;25.40;;;;;;;3.19;100.00;100895.28;5202279;28;20037;-72
2021/05/07 01:09:24;;;;;;;47.17;24.17;;;;;;;3.05;100.00;100898.16;5208258;28;20028;-72
2021/05/07 01:11:54;;;;;;;55.03;25.17;;;;;;;2.92;100.00;100897.41;5222343;28;20027;-72
2021/05/07 01:14:25;;;;;;;45.83;22.90;;;;;;;2.81;100.00;100898.19;5220966;28;20036;-72
2021/05/07 01:17:04;;;;;;;54.00;24.38;;;;;;;2.74;100.00;100895.16;5222234;28;20031;-72
2021/05/07 01:19:42;;;;;;;49.08;23.40;;;;;;;2.67;100.00;100898.41;5216337;28;20029;-72
2021/05/07 01:22:17;;;;;;;54.53;25.07;;;;;;;2.63;100.00;100897.78;5207504;28;20036;-72
2021/05/07 01:24:58;;;;;;;53.17;24.98;;;;;;;2.58;100.00;100905.22;5207353;28;20757;-71
2021/05/07 01:27:33;;;;;;;56.92;24.02;;;;;;;2.54;100.00;100903.75;5201178;28;20087;-71
2021/05/07 01:30:20;;;;;;;54.13;24.58;;;;;;;2.48;100.00;100898.91;5219038;28;20485;-72
2021/05/07 01:32:52;;;;;;;58.65;24.58;;;;;;;2.45;100.00;100913.19;5222467;28;20035;-71
2021/05/07 01:35:25;;;;;;;54.28;23.90;;;;;;;2.44;100.00;100908.03;5221765;28;20024;-71
2021/05/07 01:37:59;;;;;;;62.63;25.88;;;;;;;2.48;100.00;100917.44;5224820;28;20031;-72
2021/05/07 01:40:32;;;;;;;58.03;25.77;;;;;;;2.60;100.00;100909.44;5204955;28;20075;-71
2021/05/07 01:43:04;;;;;;;54.92;25.08;;;;;;;2.75;100.00;100915.38;5221295;28;20051;-71
2021/05/07 01:45:37;;;;;;;58.75;26.15;;;;;;;2.88;100.00;100919.78;5225005;28;20040;-71
2021/05/07 01:48:08;;;;;;;51.22;22.27;;;;;;;2.99;100.00;100922.47;5210918;28;20070;-72
2021/05/07 01:50:41;;;;;;;57.72;25.55;;;;;;;3.20;100.00;100923.50;5220997;28;20477;-71
2021/05/07 01:53:12;;;;;;;52.50;24.45;;;;;;;3.24;100.00;100927.59;5217626;28;20068;-72
2021/05/07 01:55:47;;;;;;;53.55;25.25;;;;;;;3.23;100.00;100930.38;5205522;28;20061;-72
2021/05/07 01:58:18;;;;;;;54.58;25.33;;;;;;;3.21;100.00;100929.63;5215690;28;20113;-72
2021/05/07 02:00:48;;;;;;;54.05;25.27;;;;;;;3.20;100.00;100922.66;5204109;28;20025;-71
2021/05/07 02:03:19;;;;;;;63.45;25.83;;;;;;;3.29;100.00;100932.56;5203384;28;20701;-71
2021/05/07 02:05:50;;;;;;;56.13;24.55;;;;;;;3.19;100.00;100921.81;5205165;28;20478;-72
2021/05/07 02:08:21;;;;;;;57.22;25.27;;;;;;;3.14;100.00;100920.47;5216247;28;20024;-72
2021/05/07 02:10:51;;;;;;;50.30;23.30;;;;;;;3.15;100.00;100920.34;5211415;28;20061;-71
2021/05/07 02:13:22;;;;;;;59.00;24.95;;;;;;;3.13;100.00;100916.97;5210740;28;20026;-71
2021/05/07 02:15:55;;;;;;;58.30;26.45;;;;;;;3.13;100.00;100924.94;5212084;28;20424;-72
2021/05/07 02:18:26;;;;;;;49.50;23.52;;;;;;;3.13;100.00;100922.28;5210657;28;20032;-71
2021/05/07 02:20:56;;;;;;;92.75;28.00;;;;;;;3.06;100.00;100921.03;5213751;28;20021;-72
2021/05/07 02:23:27;;;;;;;52.40;24.50;;;;;;;3.04;100.00;100921.16;5224761;28;20032;-72
2021/05/07 02:25:58;;;;;;;55.20;24.98;;;;;;;3.05;100.00;100922.84;5216069;28;20108;-71
2021/05/07 02:28:28;;;;;;;55.28;24.13;;;;;;;3.06;100.00;100924.56;5204291;28;20091;-72
2021/05/07 02:30:59;;;;;;;55.45;25.48;;;;;;;3.04;100.00;100922.97;5214979;28;20497;-72
2021/05/07 02:33:29;;;;;;;64.47;29.05;;;;;;;3.11;100.00;100918.88;5223938;28;20112;-71
2021/05/07 02:35:59;;;;;;;60.92;26.70;;;;;;;3.22;100.00;100923.41;5212364;28;20020;-71
2021/05/07 02:38:30;;;;;;;1437.80;159.77;;;;;;;3.22;100.00;100915.44;5202722;28;20041;-71
2021/05/07 02:41:01;;;;;;;98.47;37.22;;;;;;;3.25;100.00;100915.19;5201703;28;20032;-71
2021/05/07 02:43:31;;;;;;;80.40;32.67;;;;;;;3.40;100.00;100914.00;5220777;28;20033;-71
2021/05/07 02:46:02;;;;;;;71.13;29.27;;;;;;;3.95;100.00;100928.25;5216252;28;20048;-71
2021/05/07 02:48:32;;;;;;;61.83;28.08;;;;;;;4.07;100.00;100921.16;5224392;28;20485;-71
2021/05/07 02:51:03;;;;;;;64.28;27.35;;;;;;;4.10;100.00;100919.06;5214533;28;20032;-71
2021/05/07 02:53:35;;;;;;;61.85;28.23;;;;;;;4.00;100.00;100918.13;5224601;28;20104;-71
2021/05/07 02:56:05;;;;;;;60.38;26.83;;;;;;;3.88;100.00;100925.25;5224735;28;20127;-71
2021/05/07 02:58:36;;;;;;;55.78;25.30;;;;;;;3.82;100.00;100935.53;5222686;28;20044;-72
2021/05/07 03:01:06;;;;;;;54.03;23.73;;;;;;;3.81;100.00;100924.03;5222393;28;20127;-72
2021/05/07 03:03:37;;;;;;;53.40;25.42;;;;;;;3.86;100.00;100921.03;5224062;28;20032;-72
2021/05/07 03:06:07;;;;;;;63.58;28.75;;;;;;;3.87;100.00;100928.03;5224314;28;20025;-72
2021/05/07 03:08:38;;;;;;;55.17;25.10;;;;;;;3.92;100.00;100928.53;5224133;28;20028;-73
2021/05/07 03:11:10;;;;;;;53.70;25.98;;;;;;;3.85;100.00;100930.81;5223629;28;20120;-72
2021/05/07 03:13:40;;;;;;;51.08;24.98;;;;;;;3.83;100.00;100938.06;5220862;28;20025;-71
2021/05/07 03:16:11;;;;;;;64.57;27.25;;;;;;;3.85;100.00;100941.41;5203376;28;20104;-72
2021/05/07 03:18:41;;;;;;;57.45;26.02;;;;;;;3.77;100.00;100938.53;5202905;28;20033;-72
2021/05/07 03:21:11;;;;;;;59.22;25.83;;;;;;;3.88;100.00;100946.50;5215316;28;20025;-72
2021/05/07 03:23:42;;;;;;;54.72;26.73;;;;;;;3.87;100.00;100955.44;5216263;28;20033;-72
2021/05/07 03:26:13;;;;;;;50.92;24.30;;;;;;;3.86;100.00;100960.84;5203391;28;20098;-72
2021/05/07 03:28:44;;;;;;;60.97;27.88;;;;;;;3.89;100.00;100968.56;5202668;28;20120;-72
2021/05/07 03:31:15;;;;;;;57.85;25.38;;;;;;;3.93;100.00;100971.84;5202612;28;20029;-71
2021/05/07 03:33:45;;;;;;;55.60;25.23;;;;;;;3.94;100.00;100969.06;5223281;28;20025;-72
2021/05/07 03:36:16;;;;;;;50.00;23.65;;;;;;;4.00;100.00;100973.03;5223412;28;20013;-72
2021/05/07 03:38:46;;;;;;;45.38;21.02;;;;;;;4.08;100.00;100963.50;5218503;28;20036;-71
2021/05/07 03:41:17;;;;;;;40.22;19.90;;;;;;;4.08;100.00;100941.44;5218458;28;20025;-70
2021/05/07 03:43:47;;;;;;;36.83;18.10;;;;;;;4.08;100.00;100952.03;5223541;28;20111;-70
2021/05/07 03:46:18;;;;;;;39.00;17.33;;;;;;;4.09;100.00;100959.03;5222741;28;20017;-71
2021/05/07 03:48:48;;;;;;;40.25;18.63;;;;;;;4.05;100.00;100942.50;5211572;28;20085;-71
2021/05/07 03:51:19;;;;;;;38.97;19.17;;;;;;;3.99;100.00;100953.59;5211875;28;20091;-71
2021/05/07 03:53:49;;;;;;;60.30;25.92;;;;;;;4.29;100.00;100946.81;5202803;28;20061;-70
2021/05/07 03:56:20;;;;;;;52.92;23.30;;;;;;;4.73;100.00;100961.81;5223097;28;20032;-72
2021/05/07 03:58:50;;;;;;;43.83;21.30;;;;;;;4.71;100.00;100965.56;5222132;28;20021;-71
2021/05/07 04:01:24;;;;;;;68.80;28.40;;;;;;;4.96;100.00;100972.34;5213881;28;20431;-71
2021/05/07 04:03:54;;;;;;;48.25;22.77;;;;;;;5.04;100.00;100978.72;5204360;28;20033;-72
2021/05/07 04:06:26;;;;;;;41.50;19.00;;;;;;;5.67;100.00;100992.06;5214564;28;20075;-71
2021/05/07 04:09:08;;;;;;;39.50;19.20;;;;;;;4.99;100.00;100996.03;5202085;28;20021;-72
2021/05/07 04:11:53;;;;;;;35.13;17.05;;;;;;;4.60;100.00;101000.97;5202725;28;20458;-72
2021/05/07 04:14:24;;;;;;;38.75;17.80;;;;;;;4.41;100.00;101009.56;5222800;28;20035;-72
2021/05/07 04:16:54;;;;;;;36.40;18.05;;;;;;;4.19;100.00;101007.78;5222718;28;20024;-72
2021/05/07 04:19:25;;;;;;;37.75;17.95;;;;;;;4.15;100.00;101006.34;5219316;28;20057;-72
2021/05/07 04:21:56;;;;;;;42.78;18.65;;;;;;;3.97;100.00;101008.63;5210323;28;20079;-71
2021/05/07 04:24:26;;;;;;;89.72;27.38;;;;;;;3.87;100.00;101005.00;5202472;28;20025;-73
2021/05/07 04:26:57;;;;;;;47.05;19.25;;;;;;;3.79;100.00;101015.38;5202608;28;20410;-72
2021/05/07 04:29:27;;;;;;;45.97;21.60;;;;;;;3.68;100.00;101016.19;5213300;28;20540;-72
2021/05/07 04:31:59;;;;;;;38.55;18.25;;;;;;;3.62;100.00;101021.97;5222412;28;20044;-72
2021/05/07 04:34:29;;;;;;;39.55;19.23;;;;;;;3.54;100.00;101016.41;5222776;28;20032;-72
2021/05/07 04:37:00;;;;;;;47.15;19.55;;;;;;;3.58;100.00;101020.53;5209321;28;20033;-72
2021/05/07 04:39:30;;;;;;;45.13;19.45;;;;;;;3.58;100.00;101023.16;5220859;28;20501;-72
2021/05/07 04:42:01;;;;;;;35.20;17.55;;;;;;;3.65;100.00;101035.00;5222976;28;20036;-72
2021/05/07 04:44:31;;;;;;;43.33;22.58;;;;;;;3.68;100.00;101037.44;5208837;28;20026;-72
2021/05/07 04:47:02;;;;;;;38.63;16.73;;;;;;;3.81;100.00;101040.81;5219278;28;20076;-72
2021/05/07 04:49:33;;;;;;;41.78;18.00;;;;;;;3.94;100.00;101040.72;5217819;28;20485;-72
2021/05/07 04:52:04;;;;;;;42.15;19.73;;;;;;;4.04;100.00;101040.84;5210769;28;20026;-72
2021/05/07 04:54:35;;;;;;;50.60;17.52;;;;;;;4.15;100.00;101038.19;5220984;28;20020;-71
2021/05/07 04:57:06;;;;;;;39.00;16.50;;;;;;;4.29;100.00;101042.44;5222702;28;20495;-72
2021/05/07 04:59:36;;;;;;;37.38;16.25;;;;;;;4.40;100.00;101045.09;5221765;28;20017;-72
2021/05/07 05:02:07;;;;;;;36.28;15.65;;;;;;;4.44;100.00;101058.97;5221225;28;20100;-71
2021/05/07 05:04:37;;;;;;;52.67;27.10;;;;;;;4.53;100.00;101058.25;5214802;28;20034;-72
2021/05/07 05:07:09;;;;;;;57.97;33.75;;;;;;;4.60;100.00;101065.59;5216927;28;20036;-71
2021/05/07 05:09:39;;;;;;;64.40;36.97;;;;;;;4.65;100.00;101073.19;5221639;28;20410;-72
2021/05/07 05:12:10;;;;;;;29.00;15.80;;;;;;;4.77;100.00;101074.91;5208692;28;20029;-71
2021/05/07 05:14:40;;;;;;;32.38;14.32;;;;;;;4.76;100.00;101081.16;5205449;28;20025;-71
2021/05/07 05:17:11;;;;;;;21.20;10.50;;;;;;;4.79;100.00;101083.56;5223734;28;20486;-72
2021/05/07 05:19:41;;;;;;;24.10;11.60;;;;;;;4.87;100.00;101091.78;5220291;28;20398;-72
2021/05/07 05:22:12;;;;;;;23.15;12.52;;;;;;;5.03;100.00;101090.56;5234015;28;20053;-71
2021/05/07 05:24:43;;;;;;;22.67;11.38;;;;;;;5.04;100.00;101111.69;5225815;28;20167;-73
2021/05/07 05:27:14;;;;;;;21.58;11.05;;;;;;;5.01;100.00;101108.44;5226377;28;20036;-72
2021/05/07 05:29:44;;;;;;;17.15;9.93;;;;;;;5.03;100.00;101123.31;5212108;28;20025;-72
2021/05/07 05:32:15;;;;;;;18.05;10.18;;;;;;;4.99;100.00;101121.84;5225765;28;20029;-73
2021/05/07 05:34:45;;;;;;;17.00;9.57;;;;;;;5.01;100.00;101133.19;5222796;28;20026;-72
2021/05/07 05:37:16;;;;;;;16.08;9.55;;;;;;;4.95;100.00;101133.69;5210356;28;20397;-73
2021/05/07 05:39:46;;;;;;;17.15;9.93;;;;;;;4.97;100.00;101147.75;5204870;28;20101;-72
2021/05/07 05:42:17;;;;;;;24.77;12.57;;;;;;;4.92;100.00;101157.88;5215566;28;20120;-72
2021/05/07 05:44:47;;;;;;;51.47;26.10;;;;;;;4.89;100.00;101166.09;5205438;28;20159;-72
2021/05/07 05:47:18;;;;;;;33.42;22.88;;;;;;;4.93;100.00;101178.19;5222550;28;20112;-72
2021/05/07 05:49:48;;;;;;;25.45;15.57;;;;;;;4.89;100.00;101190.88;5207893;28;20037;-72
2021/05/07 05:52:19;;;;;;;18.17;11.40;;;;;;;4.75;100.00;101177.81;5211985;28;20037;-72
2021/05/07 05:54:49;;;;;;;14.85;9.98;;;;;;;4.47;100.00;101196.88;5212387;28;20051;-72
2021/05/07 05:57:20;;;;;;;13.20;9.10;;;;;;;4.44;100.00;101207.75;5225042;28;20056;-72
2021/05/07 05:59:51;;;;;;;15.50;9.82;;;;;;;4.26;100.00;101221.44;5224742;28;20112;-72
2021/05/07 06:02:21;;;;;;;18.10;10.23;;;;;;;4.26;100.00;101220.59;5225433;28;20041;-72
2021/05/07 06:04:52;;;;;;;17.73;10.75;;;;;;;4.37;100.00;101225.97;5215238;28;20067;-71
2021/05/07 06:07:22;;;;;;;20.67;11.68;;;;;;;4.34;100.00;101232.34;5204827;28;20056;-72
2021/05/07 06:09:53;;;;;;;20.02;12.07;;;;;;;4.37;100.00;101248.06;5214453;28;20029;-72
2021/05/07 06:12:23;;;;;;;18.40;11.77;;;;;;;4.35;100.00;101257.09;5205957;28;20037;-72
2021/05/07 06:14:54;;;;;;;15.38;9.88;;;;;;;4.46;100.00;101256.28;5204790;28;20474;-75
2021/05/07 06:17:24;;;;;;;16.02;9.48;;;;;;;4.43;100.00;101264.50;5224305;28;20035;-71
2021/05/07 06:19:57;;;;;;;15.75;9.68;;;;;;;4.43;100.00;101280.44;5217423;28;20021;-71
2021/05/07 06:22:28;;;;;;;13.55;7.75;;;;;;;4.37;100.00;101277.28;5217528;28;20037;-71
2021/05/07 06:24:59;;;;;;;16.20;8.05;;;;;;;4.41;100.00;101284.03;5208892;28;20021;-71
2021/05/07 06:27:30;;;;;;;14.02;8.30;;;;;;;4.43;100.00;101285.75;5204410;28;20033;-71
2021/05/07 06:30:01;;;;;;;11.95;7.85;;;;;;;4.51;100.00;101288.66;5221175;28;20517;-71
2021/05/07 06:32:31;;;;;;;10.82;7.47;;;;;;;4.54;100.00;101288.44;5213582;28;20025;-72
2021/05/07 06:35:03;;;;;;;21.35;16.35;;;;;;;4.55;100.00;101301.59;5219031;28;20102;-71
2021/05/07 06:37:34;;;;;;;10.02;6.75;;;;;;;4.49;100.00;101302.06;5216639;28;20053;-71
2021/05/07 06:40:06;;;;;;;9.27;6.00;;;;;;;4.63;100.00;101315.16;5223773;28;20449;-72
2021/05/07 06:42:38;;;;;;;10.90;6.20;;;;;;;4.76;100.00;101325.69;5223587;28;20488;-71
2021/05/07 06:45:10;;;;;;;8.85;5.45;;;;;;;4.94;100.00;101326.13;5212189;28;20025;-72
2021/05/07 06:47:41;;;;;;;13.15;6.60;;;;;;;5.23;100.00;101331.00;5219610;28;20029;-71
2021/05/07 06:50:12;;;;;;;6.57;4.90;;;;;;;5.30;100.00;101333.03;5209168;28;20118;-71
2021/05/07 06:52:42;;;;;;;7.28;4.78;;;;;;;5.44;100.00;101346.09;5224737;28;20032;-71
2021/05/07 06:55:13;;;;;;;8.23;5.20;;;;;;;5.51;100.00;101351.78;5239858;28;20029;-72
2021/05/07 06:57:46;;;;;;;5.45;4.28;;;;;;;5.55;100.00;101350.56;5212192;28;20037;-71
2021/05/07 07:00:18;;;;;;;7.13;5.35;;;;;;;5.70;100.00;101357.34;5203057;28;20021;-71
2021/05/07 07:02:48;;;;;;;8.35;6.32;;;;;;;5.94;100.00;101367.88;5223785;28;20406;-71
2021/05/07 07:05:19;;;;;;;6.43;4.47;;;;;;;5.90;100.00;101368.22;5224052;28;20031;-71
2021/05/07 07:07:49;;;;;;;4.82;3.55;;;;;;;5.76;100.00;101371.13;5198579;28;20099;-71
2021/05/07 07:10:21;;;;;;;5.93;3.47;;;;;;;5.76;100.00;101379.13;5204459;28;20033;-72
2021/05/07 07:12:51;;;;;;;6.70;4.45;;;;;;;5.81;100.00;101375.13;5239550;28;20021;-71
2021/05/07 07:15:22;;;;;;;7.72;4.70;;;;;;;5.96;100.00;101386.41;5223838;28;20035;-71
2021/05/07 07:17:55;;;;;;;6.65;4.43;;;;;;;6.22;100.00;101379.81;5239640;28;20020;-71
2021/05/07 07:20:30;;;;;;;6.35;4.00;;;;;;;6.33;100.00;101383.44;5211877;28;20412;-77
2021/05/07 07:23:00;;;;;;;7.72;4.10;;;;;;;6.25;100.00;101397.38;5226050;28;20049;-71
2021/05/07 07:25:31;;;;;;;6.32;3.97;;;;;;;6.26;100.00;101395.53;5216111;28;20505;-71
2021/05/07 07:28:04;;;;;;;6.25;4.15;;;;;;;6.30;100.00;101397.00;5202964;28;20053;-71
2021/05/07 07:30:35;;;;;;;7.22;4.78;;;;;;;6.60;100.00;101401.63;5202468;28;20508;-70
2021/05/07 07:33:05;;;;;;;7.55;5.10;;;;;;;6.68;100.00;101409.84;5204746;28;20108;-70
2021/05/07 07:35:36;;;;;;;7.78;6.07;;;;;;;6.86;100.00;101402.13;5223105;28;20059;-70
2021/05/07 07:38:06;;;;;;;9.05;5.20;;;;;;;7.05;100.00;101415.59;5206940;28;20017;-70
2021/05/07 07:40:37;;;;;;;7.10;5.07;;;;;;;7.26;100.00;101412.94;5202643;28;20021;-70
2021/05/07 07:43:07;;;;;;;11.15;6.88;;;;;;;7.50;100.00;101409.97;5202681;28;20037;-70
2021/05/07 07:45:38;;;;;;;8.95;6.63;;;;;;;7.44;100.00;101419.38;5213901;28;20028;-70
2021/05/07 07:48:08;;;;;;;13.27;7.35;;;;;;;7.59;100.00;101421.69;5221986;28;20279;-71
2021/05/07 07:50:40;;;;;;;10.27;7.20;;;;;;;7.70;100.00;101430.47;5212762;28;20123;-71
2021/05/07 07:53:11;;;;;;;11.40;7.20;;;;;;;7.97;100.00;101442.38;5202904;28;20276;-71
2021/05/07 07:55:41;;;;;;;12.23;7.18;;;;;;;7.88;100.00;101446.72;5217500;28;20028;-71
2021/05/07 07:58:12;;;;;;;10.20;7.40;;;;;;;8.04;100.00;101448.88;5214563;28;20033;-71
2021/05/07 08:00:42;;;;;;;14.65;8.25;;;;;;;8.05;100.00;101450.56;5204660;28;20067;-71
2021/05/07 08:03:13;;;;;;;10.13;7.45;;;;;;;8.27;100.00;101450.34;5211912;28;20049;-71
2021/05/07 08:05:44;;;;;;;12.07;7.95;;;;;;;8.49;100.00;101452.00;5215900;28;20034;-71
2021/05/07 08:08:14;;;;;;;11.18;7.53;;;;;;;8.76;100.00;101455.81;5202656;28;20386;-71
2021/05/07 08:10:45;;;;;;;13.48;8.02;;;;;;;8.87;100.00;101453.00;5214228;28;20104;-71
2021/05/07 08:13:15;;;;;;;13.38;8.90;;;;;;;9.10;100.00;101458.09;5215307;28;20039;-70
2021/05/07 08:15:46;;;;;;;10.98;7.72;;;;;;;9.52;100.00;101466.63;5203594;28;20108;-71
2021/05/07 08:18:16;;;;;;;10.68;7.35;;;;;;;9.48;100.00;101471.41;5202635;28;20025;-71
2021/05/07 08:20:47;;;;;;;10.52;7.68;;;;;;;9.88;100.00;101472.16;5210355;28;20378;-71
2021/05/07 08:23:18;;;;;;;11.27;6.90;;;;;;;10.31;100.00;101475.13;5221164;28;20035;-71
2021/05/07 08:25:48;;;;;;;9.98;6.93;;;;;;;10.12;100.00;101484.06;5213743;28;20386;-71
2021/05/07 08:28:18;;;;;;;15.18;7.78;;;;;;;9.81;100.00;101485.31;5218397;28;20124;-71
2021/05/07 08:30:49;;;;;;;11.70;7.80;;;;;;;9.65;100.00;101496.63;5237702;28;20481;-72
2021/05/07 08:33:20;;;;;;;9.85;7.13;;;;;;;9.94;100.00;101495.69;5218825;28;20028;-71
2021/05/07 08:35:50;;;;;;;8.50;6.50;;;;;;;10.25;100.00;101505.22;5213269;28;20024;-71
2021/05/07 08:38:21;;;;;;;13.25;6.75;;;;;;;10.29;100.00;101500.38;5208937;28;20493;-70
2021/05/07 08:40:51;;;;;;;9.38;6.82;;;;;;;10.35;100.00;101507.84;5222465;28;20121;-70
2021/05/07 08:43:22;;;;;;;19.85;7.05;;;;;;;10.63;100.00;101512.19;5202470;28;20414;-70
2021/05/07 08:45:53;;;;;;;11.20;6.20;;;;;;;10.69;100.00;101512.59;5210351;28;20082;-73
2021/05/07 08:48:25;;;;;;;13.75;7.47;;;;;;;10.85;100.00;101518.16;5218335;28;20460;-70
2021/05/07 08:50:56;;;;;;;9.73;5.22;;;;;;;10.69;100.00;101515.28;5208807;28;20025;-70
2021/05/07 08:53:27;;;;;;;8.30;5.28;;;;;;;10.42;98.58;101522.34;5215572;28;20025;-71
2021/05/07 08:56:03;;;;;;;8.73;5.43;;;;;;;10.69;100.00;101524.16;5209989;28;20018;-70
2021/05/07 08:58:35;;;;;;;6.32;4.15;;;;;;;10.68;94.09;101521.63;5225686;28;20482;-69
2021/05/07 09:01:06;;;;;;;7.43;5.30;;;;;;;11.14;100.00;101528.66;5208533;28;20143;-69
2021/05/07 09:03:39;;;;;;;6.90;4.70;;;;;;;11.66;100.00;101535.00;5216907;28;20079;-69
2021/05/07 09:06:18;;;;;;;7.30;4.00;;;;;;;11.95;85.22;101533.88;5205273;28;20471;-68
2021/05/07 09:08:50;;;;;;;5.75;2.38;;;;;;;11.61;72.19;101542.69;5218203;28;20381;-68
2021/05/07 09:11:20;;;;;;;4.82;2.58;;;;;;;11.39;68.87;101549.38;5211619;28;20395;-69
2021/05/07 09:14:02;;;;;;;6.07;3.72;;;;;;;11.23;66.21;101559.97;5208453;28;20049;-69
2021/05/07 09:16:32;;;;;;;5.32;2.63;;;;;;;11.04;68.69;101558.25;5204178;28;20025;-68
2021/05/07 09:19:03;;;;;;;4.10;3.13;;;;;;;11.00;83.82;101564.97;5203899;28;20026;-68
2021/05/07 09:21:41;;;;;;;6.47;2.83;;;;;;;11.47;81.74;101561.19;5219000;28;20538;-68
2021/05/07 09:24:11;;;;;;;7.28;3.08;;;;;;;11.44;68.51;101553.44;5204573;28;20053;-68
2021/05/07 09:26:50;;;;;;;5.07;3.20;;;;;;;11.56;68.03;101571.88;5217082;28;20488;-68
2021/05/07 09:29:25;;;;;;;7.05;3.67;;;;;;;11.68;68.01;101561.72;5220129;28;20271;-68
2021/05/07 09:31:57;;;;;;;6.22;3.47;;;;;;;12.09;71.08;101564.72;5217362;28;20025;-69
2021/05/07 09:34:34;;;;;;;6.22;4.28;;;;;;;12.22;79.60;101575.06;5219287;28;20056;-68
2021/05/07 09:37:14;;;;;;;6.20;4.38;;;;;;;12.33;77.80;101574.78;5211297;28;20017;-68
2021/05/07 09:39:45;;;;;;;7.15;3.55;;;;;;;11.98;63.98;101591.88;5221519;28;20098;-68
2021/05/07 09:42:22;;;;;;;9.27;3.60;;;;;;;11.60;60.88;101586.69;5203273;28;20021;-68
2021/05/07 09:44:53;;;;;;;4.75;3.70;;;;;;;11.55;60.77;101585.47;5216747;28;20486;-68
2021/05/07 09:47:30;;;;;;;5.68;3.30;;;;;;;11.68;62.79;101592.13;5221442;28;20036;-68
2021/05/07 09:50:03;;;;;;;5.55;3.80;;;;;;;11.92;77.42;101593.34;5219384;28;20124;-68
2021/05/07 09:52:34;;;;;;;6.72;3.25;;;;;;;12.01;59.91;101597.78;5217722;28;20028;-68
2021/05/07 09:55:07;;;;;;;5.80;3.28;;;;;;;12.14;57.36;101597.34;5214575;28;20393;-70
2021/05/07 09:57:39;;;;;;;4.65;3.17;;;;;;;11.85;54.83;101598.53;5237788;28;20032;-67
2021/05/07 10:00:11;;;;;;;6.40;2.95;;;;;;;11.53;59.78;101599.03;5211826;28;20504;-68
2021/05/07 10:02:41;;;;;;;6.75;3.38;;;;;;;11.57;73.06;101599.59;5216231;28;20100;-68
2021/05/07 10:05:12;;;;;;;4.15;3.13;;;;;;;11.79;70.29;101609.00;5203559;28;20397;-69
2021/05/07 10:07:42;;;;;;;5.20;3.28;;;;;;;12.05;59.71;101609.94;5202272;28;20063;-67
2021/05/07 10:10:13;;;;;;;4.55;3.33;;;;;;;12.01;63.11;101610.41;5202266;28;20113;-68
2021/05/07 10:12:46;;;;;;;6.65;3.35;;;;;;;12.25;62.06;101615.06;5203050;28;20033;-68
2021/05/07 10:15:26;;;;;;;4.82;3.08;;;;;;;12.47;69.06;101601.09;5203042;28;20048;-68
2021/05/07 10:17:57;;;;;;;5.50;3.25;;;;;;;12.71;58.67;101608.44;5213871;28;20025;-68
2021/05/07 10:20:31;;;;;;;4.35;3.20;;;;;;;12.99;61.63;101618.97;5210506;28;20025;-68
2021/05/07 10:23:16;;;;;;;5.60;3.50;;;;;;;13.21;57.27;101619.25;5210238;28;20482;-68
2021/05/07 10:25:55;;;;;;;5.47;3.50;;;;;;;13.56;52.51;101621.84;5212012;28;20032;-68
2021/05/07 10:28:29;;;;;;;6.47;3.90;;;;;;;13.79;52.12;101617.47;5222400;28;20031;-68
2021/05/07 10:31:07;;;;;;;6.45;3.40;;;;;;;13.69;53.89;101611.41;5211344;28;20025;-68
2021/05/07 10:33:38;;;;;;;8.18;3.80;;;;;;;13.52;55.34;101615.09;5222768;28;20035;-68
2021/05/07 10:36:09;;;;;;;7.55;4.43;;;;;;;13.26;54.28;101618.75;5210040;28;20108;-68
2021/05/07 10:38:47;;;;;;;5.35;3.72;;;;;;;13.12;52.26;101625.59;5223109;28;20020;-68
2021/05/07 10:41:18;;;;;;;6.90;4.00;;;;;;;12.89;53.69;101632.56;5219703;28;20021;-68
2021/05/07 10:43:58;;;;;;;7.45;3.75;;;;;;;12.67;57.53;101634.84;5212598;28;20029;-68
2021/05/07 10:46:29;;;;;;;7.20;3.45;;;;;;;12.55;60.88;101637.97;5214427;28;20021;-68
2021/05/07 10:49:00;;;;;;;5.40;4.10;;;;;;;12.14;65.98;101640.38;5215391;28;20025;-68
2021/05/07 10:51:30;;;;;;;6.05;4.60;;;;;;;11.90;72.49;101638.38;5204951;28;20390;-69
2021/05/07 10:54:10;;;;;;;7.65;4.43;;;;;;;11.68;69.87;101645.88;5215698;28;20009;-68
2021/05/07 10:56:44;;;;;;;8.32;4.78;;;;;;;11.75;81.61;101640.75;5206518;28;20033;-68
2021/05/07 10:59:17;;;;;;;8.15;4.90;;;;;;;12.08;82.85;101635.66;5217778;28;20634;-69
2021/05/07 11:01:57;;;;;;;8.70;5.22;;;;;;;12.42;82.17;101623.09;5213301;28;20549;-68
2021/05/07 11:04:39;;;;;;;9.40;5.85;;;;;;;13.00;89.34;101629.56;5201959;28;20026;-68
2021/05/07 11:07:10;;;;;;;7.05;5.63;;;;;;;13.31;64.36;101634.44;5204745;28;20387;-68
2021/05/07 11:09:42;;;;;;;7.80;5.13;;;;;;;13.46;55.42;101633.63;5221392;28;20024;-68
2021/05/07 11:12:14;;;;;;;7.45;5.47;;;;;;;13.51;56.87;101633.13;5208063;28;20223;-68
2021/05/07 11:14:44;;;;;;;7.53;4.85;;;;;;;13.59;55.37;101637.69;5222332;28;20036;-68
2021/05/07 11:17:17;;;;;;;5.95;4.50;;;;;;;13.68;52.27;101633.97;5222236;28;20029;-68
2021/05/07 11:19:47;;;;;;;6.35;4.50;;;;;;;13.44;56.44;101634.78;5214979;28;20388;-68
2021/05/07 11:22:24;;;;;;;6.93;4.63;;;;;;;13.16;55.02;101643.13;5214973;28;20029;-68
2021/05/07 11:24:55;;;;;;;12.18;5.70;;;;;;;12.81;60.39;101640.63;5222197;28;20035;-68
2021/05/07 11:27:27;;;;;;;9.98;6.88;;;;;;;13.12;61.10;101640.91;5213246;28;20025;-68
2021/05/07 11:29:57;;;;;;;13.02;6.70;;;;;;;13.24;61.68;101647.72;5217775;28;20079;-68
2021/05/07 11:32:28;;;;;;;11.73;6.00;;;;;;;13.35;60.30;101652.78;5221877;28;20457;-70
2021/05/07 11:35:05;;;;;;;8.60;5.47;;;;;;;13.54;54.49;101645.41;5216734;28;20410;-68